createdAt,value
2023-05-22T00:00:21.246Z,0.00
2023-05-22T00:01:51.522Z,0.00
2023-05-22T00:02:59.970Z,0.00
2023-05-22T00:04:08.434Z,0.00
2023-05-22T00:05:17.948Z,0.00
2023-05-22T00:06:25.717Z,0.00
2023-05-22T00:07:33.509Z,0.00
2023-05-22T00:08:40.705Z,0.00
2023-05-22T00:09:49.402Z,0.00
2023-05-22T00:10:56.937Z,0.00
2023-05-22T00:12:05.940Z,0.00
2023-05-22T00:13:14.355Z,0.00
2023-05-22T00:14:21.928Z,0.00
2023-05-22T00:15:29.751Z,0.00
2023-05-22T00:16:37.353Z,0.00
2023-05-22T00:17:46.096Z,0.00
2023-05-22T00:18:53.693Z,0.00
2023-05-22T00:20:08.535Z,0.00
2023-05-22T00:21:17.582Z,0.00
2023-05-22T00:22:25.433Z,0.00
2023-05-22T00:23:32.645Z,0.00
2023-05-22T00:24:40.456Z,0.00
2023-05-22T00:25:47.988Z,0.00
2023-05-22T00:26:55.757Z,0.00
2023-05-22T00:28:04.905Z,0.00
2023-05-22T00:29:13.714Z,0.00
2023-05-22T00:30:22.502Z,0.00
2023-05-22T00:31:30.111Z,0.00
2023-05-22T00:32:38.234Z,0.00
2023-05-22T00:33:46.136Z,0.00
2023-05-22T00:34:54.125Z,0.00
2023-05-22T00:36:01.520Z,0.00
2023-05-22T00:37:08.943Z,0.00
2023-05-22T00:38:30.778Z,0.00
2023-05-22T00:39:37.705Z,0.00
2023-05-22T00:40:44.923Z,0.00
2023-05-22T00:41:51.808Z,0.00
2023-05-22T00:42:59.037Z,0.00
2023-05-22T00:44:07.462Z,0.00
2023-05-22T00:45:16.926Z,0.00
2023-05-22T00:46:24.113Z,0.00
2023-05-22T00:47:33.879Z,0.00
2023-05-22T00:48:40.723Z,0.00
2023-05-22T00:49:49.278Z,0.00
2023-05-22T00:50:59.041Z,0.00
2023-05-22T00:52:07.395Z,0.00
2023-05-22T00:53:16.591Z,0.00
2023-05-22T00:54:24.794Z,0.00
2023-05-22T00:55:32.147Z,0.00
2023-05-22T00:56:39.330Z,0.00
2023-05-22T00:57:47.652Z,0.00
2023-05-22T00:58:55.899Z,0.00
2023-05-22T01:00:05.518Z,0.00
2023-05-22T01:01:15.691Z,0.00
2023-05-22T01:02:24.417Z,0.00
2023-05-22T01:03:34.029Z,0.00
2023-05-22T01:04:41.051Z,0.00
2023-05-22T01:05:48.000Z,0.00
2023-05-22T01:06:56.478Z,0.00
2023-05-22T01:08:04.224Z,0.00
2023-05-22T01:09:12.494Z,0.00
2023-05-22T01:10:20.089Z,0.00
2023-05-22T01:11:39.957Z,0.00
2023-05-22T01:13:26.236Z,0.00
2023-05-22T01:15:08.424Z,0.00
2023-05-22T01:16:31.646Z,0.00
2023-05-22T01:18:06.040Z,0.00
2023-05-22T01:19:55.352Z,0.00
2023-05-22T01:21:23.934Z,0.00
2023-05-22T01:23:07.893Z,0.00
2023-05-22T01:24:53.921Z,0.00
2023-05-22T01:26:22.851Z,0.00
2023-05-22T01:27:58.621Z,0.00
2023-05-22T01:29:44.910Z,0.00
2023-05-22T01:31:04.884Z,0.00
2023-05-22T01:32:14.513Z,0.00
2023-05-22T01:33:23.376Z,0.00
2023-05-22T01:34:33.389Z,0.00
2023-05-22T01:35:40.945Z,0.00
2023-05-22T01:36:49.846Z,0.00
2023-05-22T01:37:58.341Z,0.00
2023-05-22T01:39:08.425Z,0.00
2023-05-22T01:40:17.058Z,0.00
2023-05-22T01:41:24.815Z,0.00
2023-05-22T01:42:32.432Z,0.00
2023-05-22T01:43:41.857Z,0.00
2023-05-22T01:44:53.002Z,0.00
2023-05-22T01:46:04.041Z,0.00
2023-05-22T01:47:12.182Z,0.00
2023-05-22T01:48:20.914Z,0.00
2023-05-22T01:49:31.227Z,0.00
2023-05-22T01:50:39.085Z,0.00
2023-05-22T01:52:14.058Z,0.00
2023-05-22T01:53:32.254Z,0.00
2023-05-22T01:54:44.652Z,0.00
2023-05-22T01:56:18.182Z,0.00
2023-05-22T01:57:39.451Z,0.00
2023-05-22T01:59:13.710Z,0.00
2023-05-22T02:00:22.818Z,0.00
2023-05-22T02:01:31.502Z,0.00
2023-05-22T02:02:40.660Z,0.00
2023-05-22T02:03:49.105Z,0.00
2023-05-22T02:04:59.920Z,0.00
2023-05-22T02:06:09.598Z,0.00
2023-05-22T02:07:18.989Z,0.00
2023-05-22T02:08:28.067Z,0.00
2023-05-22T02:09:37.222Z,0.00
2023-05-22T02:10:45.801Z,0.00
2023-05-22T02:11:53.852Z,0.00
2023-05-22T02:13:02.364Z,0.00
2023-05-22T02:14:10.827Z,0.00
2023-05-22T02:15:19.202Z,0.00
2023-05-22T02:16:26.909Z,0.00
2023-05-22T02:17:41.814Z,0.00
2023-05-22T02:18:50.240Z,0.00
2023-05-22T02:19:58.012Z,0.00
2023-05-22T02:21:10.737Z,0.00
2023-05-22T02:22:19.393Z,0.00
2023-05-22T02:23:27.292Z,0.00
2023-05-22T02:24:38.415Z,0.00
2023-05-22T02:25:46.864Z,0.00
2023-05-22T02:26:56.069Z,0.00
2023-05-22T02:28:03.375Z,0.00
2023-05-22T02:29:10.860Z,0.00
2023-05-22T02:30:19.226Z,0.00
2023-05-22T02:31:30.089Z,0.00
2023-05-22T02:32:37.896Z,0.00
2023-05-22T02:33:44.711Z,0.00
2023-05-22T02:34:53.444Z,0.00
2023-05-22T02:36:01.863Z,0.00
2023-05-22T02:37:10.393Z,0.00
2023-05-22T02:38:17.922Z,0.00
2023-05-22T02:39:26.026Z,0.00
2023-05-22T02:40:34.162Z,0.00
2023-05-22T02:41:41.656Z,0.00
2023-05-22T02:42:49.124Z,0.00
2023-05-22T02:43:57.636Z,0.00
2023-05-22T02:45:05.409Z,0.00
2023-05-22T02:46:13.820Z,0.00
2023-05-22T02:47:23.109Z,0.00
2023-05-22T02:48:31.243Z,0.00
2023-05-22T02:49:39.392Z,0.00
2023-05-22T02:50:46.715Z,0.00
2023-05-22T02:51:55.018Z,0.00
2023-05-22T02:53:03.821Z,0.00
2023-05-22T02:54:12.917Z,0.00
2023-05-22T02:55:21.402Z,0.00
2023-05-22T02:56:30.256Z,0.00
2023-05-22T02:57:38.232Z,0.00
2023-05-22T02:58:46.273Z,0.00
2023-05-22T02:59:56.286Z,0.00
2023-05-22T03:01:05.133Z,0.00
2023-05-22T03:02:14.209Z,0.00
2023-05-22T03:03:22.746Z,0.00
2023-05-22T03:04:32.386Z,0.00
2023-05-22T03:05:39.734Z,0.00
2023-05-22T03:06:48.854Z,0.00
2023-05-22T03:07:57.400Z,0.00
2023-05-22T03:09:06.388Z,0.00
2023-05-22T03:10:14.548Z,0.00
2023-05-22T03:11:23.979Z,0.00
2023-05-22T03:12:32.477Z,0.00
2023-05-22T03:13:40.202Z,0.00
2023-05-22T03:14:49.734Z,0.00
2023-05-22T03:15:58.430Z,0.00
2023-05-22T03:17:06.128Z,0.00
2023-05-22T03:18:13.400Z,0.00
2023-05-22T03:19:20.614Z,0.00
2023-05-22T03:20:28.545Z,0.00
2023-05-22T03:21:35.667Z,0.00
2023-05-22T03:22:42.549Z,0.00
2023-05-22T03:23:50.259Z,0.00
2023-05-22T03:24:57.257Z,0.00
2023-05-22T03:26:04.618Z,0.00
2023-05-22T03:27:18.227Z,0.00
2023-05-22T03:28:27.350Z,0.00
2023-05-22T03:29:34.555Z,0.00
2023-05-22T03:30:43.105Z,0.00
2023-05-22T03:31:59.176Z,0.00
2023-05-22T03:33:08.148Z,0.00
2023-05-22T03:34:15.806Z,0.00
2023-05-22T03:35:27.134Z,0.00
2023-05-22T03:36:37.221Z,0.00
2023-05-22T03:37:45.431Z,0.00
2023-05-22T03:38:54.546Z,0.00
2023-05-22T03:40:02.775Z,0.00
2023-05-22T03:41:11.417Z,0.00
2023-05-22T03:42:19.068Z,0.00
2023-05-22T03:43:26.307Z,0.00
2023-05-22T03:44:34.736Z,0.00
2023-05-22T03:45:42.068Z,0.00
2023-05-22T03:46:48.855Z,0.00
2023-05-22T03:47:56.961Z,0.00
2023-05-22T03:49:05.522Z,0.00
2023-05-22T03:50:14.346Z,0.00
2023-05-22T03:51:22.718Z,0.00
2023-05-22T03:52:31.274Z,0.00
2023-05-22T03:53:39.771Z,0.00
2023-05-22T03:54:47.880Z,0.00
2023-05-22T03:55:56.356Z,0.00
2023-05-22T03:57:05.745Z,0.00
2023-05-22T03:58:13.657Z,0.00
2023-05-22T03:59:20.634Z,0.00
2023-05-22T04:00:29.705Z,0.00
2023-05-22T04:01:37.490Z,0.00
2023-05-22T04:02:46.386Z,0.00
2023-05-22T04:03:54.696Z,0.00
2023-05-22T04:05:02.324Z,0.00
2023-05-22T04:06:10.958Z,0.00
2023-05-22T04:07:22.054Z,0.00
2023-05-22T04:08:30.921Z,0.00
2023-05-22T04:09:39.958Z,0.00
2023-05-22T04:10:48.145Z,0.00
2023-05-22T04:11:58.237Z,0.00
2023-05-22T04:13:06.365Z,0.00
2023-05-22T04:14:13.523Z,0.00
2023-05-22T04:15:20.402Z,0.00
2023-05-22T04:16:31.375Z,0.00
2023-05-22T04:17:41.537Z,0.00
2023-05-22T04:18:49.871Z,0.00
2023-05-22T04:19:59.505Z,0.00
2023-05-22T04:21:09.950Z,0.00
2023-05-22T04:22:20.717Z,0.00
2023-05-22T04:23:29.546Z,0.00
2023-05-22T04:24:36.868Z,0.00
2023-05-22T04:25:43.690Z,0.00
2023-05-22T04:26:52.081Z,0.00
2023-05-22T04:28:01.607Z,0.00
2023-05-22T04:29:11.845Z,0.00
2023-05-22T04:30:20.624Z,0.00
2023-05-22T04:31:28.823Z,0.00
2023-05-22T04:32:38.282Z,0.00
2023-05-22T04:33:49.743Z,0.00
2023-05-22T04:34:59.609Z,0.00
2023-05-22T04:36:09.461Z,0.00
2023-05-22T04:37:19.596Z,0.00
2023-05-22T04:38:27.729Z,0.00
2023-05-22T04:39:35.948Z,0.00
2023-05-22T04:40:43.090Z,0.00
2023-05-22T04:41:51.504Z,0.00
2023-05-22T04:43:01.918Z,0.00
2023-05-22T04:44:11.083Z,0.00
2023-05-22T04:45:20.885Z,0.00
2023-05-22T04:46:30.246Z,0.00
2023-05-22T04:47:39.383Z,0.00
2023-05-22T04:48:46.895Z,0.00
2023-05-22T04:49:55.069Z,0.00
2023-05-22T04:51:04.086Z,0.00
2023-05-22T04:52:16.533Z,0.00
2023-05-22T04:53:25.277Z,0.00
2023-05-22T04:54:33.773Z,0.00
2023-05-22T04:55:41.802Z,0.00
2023-05-22T04:56:49.760Z,0.00
2023-05-22T04:57:57.558Z,0.00
2023-05-22T04:59:06.750Z,0.00
2023-05-22T05:00:16.758Z,0.00
2023-05-22T05:01:26.229Z,0.00
2023-05-22T05:02:34.424Z,0.00
2023-05-22T05:03:41.772Z,0.00
2023-05-22T05:04:50.033Z,0.00
2023-05-22T05:05:58.505Z,0.00
2023-05-22T05:07:08.268Z,0.00
2023-05-22T05:08:16.162Z,0.00
2023-05-22T05:09:23.312Z,0.00
2023-05-22T05:10:31.170Z,0.00
2023-05-22T05:11:39.639Z,0.00
2023-05-22T05:12:46.838Z,0.00
2023-05-22T05:13:56.288Z,0.00
2023-05-22T05:15:04.946Z,0.00
2023-05-22T05:16:13.115Z,0.00
2023-05-22T05:17:20.906Z,0.00
2023-05-22T05:18:29.522Z,0.00
2023-05-22T05:19:37.460Z,0.00
2023-05-22T05:20:44.503Z,0.00
2023-05-22T05:21:54.115Z,0.00
2023-05-22T05:23:02.678Z,0.00
2023-05-22T05:24:12.110Z,0.00
2023-05-22T05:25:19.406Z,0.00
2023-05-22T05:26:29.082Z,0.00
2023-05-22T05:27:37.820Z,0.00
2023-05-22T05:28:45.205Z,0.00
2023-05-22T05:29:52.347Z,0.00
2023-05-22T05:31:05.349Z,0.00
2023-05-22T05:32:33.594Z,0.00
2023-05-22T05:33:52.284Z,0.00
2023-05-22T05:35:19.674Z,0.00
2023-05-22T05:36:31.955Z,0.00
2023-05-22T05:37:39.833Z,0.00
2023-05-22T05:38:47.628Z,0.00
2023-05-22T05:39:56.118Z,0.00
2023-05-22T05:41:03.308Z,0.00
2023-05-22T05:42:11.607Z,0.00
2023-05-22T05:43:19.367Z,0.00
2023-05-22T05:44:27.346Z,0.00
2023-05-22T05:45:35.075Z,0.00
2023-05-22T05:46:42.541Z,0.00
2023-05-22T05:47:54.262Z,0.00
2023-05-22T05:49:03.006Z,0.00
2023-05-22T05:50:11.484Z,0.00
2023-05-22T05:51:19.970Z,0.00
2023-05-22T05:52:28.784Z,0.00
2023-05-22T05:53:38.956Z,0.00
2023-05-22T05:54:48.598Z,0.00
2023-05-22T05:55:59.712Z,0.00
2023-05-22T05:57:11.694Z,0.00
2023-05-22T05:58:20.998Z,0.00
2023-05-22T05:59:40.870Z,0.00
2023-05-22T06:01:08.757Z,0.00
2023-05-22T06:02:17.652Z,0.00
2023-05-22T06:03:27.441Z,0.00
2023-05-22T06:04:51.063Z,0.00
2023-05-22T06:05:59.451Z,0.00
2023-05-22T06:07:27.310Z,0.00
2023-05-22T06:08:36.757Z,0.00
2023-05-22T06:09:44.317Z,0.00
2023-05-22T06:11:11.674Z,0.00
2023-05-22T06:12:29.746Z,0.00
2023-05-22T06:13:38.415Z,0.00
2023-05-22T06:14:47.009Z,0.00
2023-05-22T06:15:57.602Z,0.00
2023-05-22T06:17:07.055Z,0.00
2023-05-22T06:18:16.282Z,0.00
2023-05-22T06:19:23.275Z,0.00
2023-05-22T06:20:31.201Z,0.00
2023-05-22T06:21:38.083Z,0.00
2023-05-22T06:22:45.496Z,0.00
2023-05-22T06:23:53.123Z,0.00
2023-05-22T06:25:00.417Z,0.00
2023-05-22T06:26:07.964Z,0.00
2023-05-22T06:27:16.432Z,0.00
2023-05-22T06:28:23.712Z,0.00
2023-05-22T06:29:31.251Z,0.00
2023-05-22T06:30:40.517Z,0.00
2023-05-22T06:31:51.494Z,0.00
2023-05-22T06:32:58.991Z,0.00
2023-05-22T06:34:06.486Z,0.00
2023-05-22T06:35:15.254Z,0.00
2023-05-22T06:36:22.823Z,0.00
2023-05-22T06:37:33.351Z,0.00
2023-05-22T06:38:40.726Z,0.00
2023-05-22T06:39:53.273Z,0.00
2023-05-22T06:41:13.252Z,0.00
2023-05-22T06:42:21.393Z,0.00
2023-05-22T06:43:49.060Z,0.00
2023-05-22T06:45:02.174Z,0.00
2023-05-22T06:46:15.660Z,0.00
2023-05-22T06:47:32.601Z,0.00
2023-05-22T06:48:39.897Z,0.00
2023-05-22T06:49:56.779Z,0.00
2023-05-22T06:51:04.604Z,0.00
2023-05-22T06:52:11.898Z,0.00
2023-05-22T06:53:19.331Z,0.00
2023-05-22T06:54:30.405Z,0.00
2023-05-22T06:55:37.993Z,0.00
2023-05-22T06:56:52.437Z,0.00
2023-05-22T06:58:01.605Z,0.00
2023-05-22T06:59:10.361Z,0.00
2023-05-22T07:00:38.142Z,0.00
2023-05-22T07:01:52.850Z,0.00
2023-05-22T07:03:09.692Z,0.00
2023-05-22T07:04:26.590Z,0.00
2023-05-22T07:05:40.152Z,0.00
2023-05-22T07:06:47.800Z,0.00
2023-05-22T07:07:55.234Z,0.00
2023-05-22T07:09:04.289Z,0.00
2023-05-22T07:10:12.884Z,0.00
2023-05-22T07:11:20.920Z,0.00
2023-05-22T07:12:29.395Z,0.00
2023-05-22T07:13:37.897Z,0.00
2023-05-22T07:14:45.088Z,0.00
2023-05-22T07:15:53.634Z,0.00
2023-05-22T07:17:00.625Z,0.00
2023-05-22T07:18:13.406Z,0.00
2023-05-22T07:19:22.191Z,0.00
2023-05-22T07:20:30.617Z,0.00
2023-05-22T07:21:46.538Z,0.00
2023-05-22T07:22:55.586Z,0.00
2023-05-22T07:24:09.289Z,0.00
2023-05-22T07:25:19.779Z,0.00
2023-05-22T07:26:29.889Z,0.00
2023-05-22T07:27:42.559Z,0.00
2023-05-22T07:28:53.980Z,0.00
2023-05-22T07:30:02.133Z,0.00
2023-05-22T07:31:10.854Z,0.00
2023-05-22T07:32:17.935Z,0.00
2023-05-22T07:33:26.617Z,0.00
2023-05-22T07:34:35.744Z,0.00
2023-05-22T07:35:46.877Z,0.00
2023-05-22T07:36:56.208Z,0.00
2023-05-22T07:38:04.391Z,0.00
2023-05-22T07:39:13.191Z,0.00
2023-05-22T07:40:21.343Z,0.00
2023-05-22T07:41:32.109Z,0.00
2023-05-22T07:42:40.768Z,0.00
2023-05-22T07:43:48.085Z,0.00
2023-05-22T07:44:58.127Z,0.00
2023-05-22T07:46:08.652Z,0.00
2023-05-22T07:47:22.334Z,0.00
2023-05-22T07:48:30.522Z,0.00
2023-05-22T07:49:37.736Z,0.00
2023-05-22T07:50:46.659Z,0.00
2023-05-22T07:51:55.222Z,0.00
2023-05-22T07:53:06.684Z,0.00
2023-05-22T07:54:17.627Z,0.00
2023-05-22T07:55:26.796Z,0.00
2023-05-22T07:56:35.557Z,0.00
2023-05-22T07:57:46.597Z,0.00
2023-05-22T07:59:04.401Z,0.00
2023-05-22T08:00:14.048Z,0.00
2023-05-22T08:01:21.627Z,0.00
2023-05-22T08:02:29.543Z,0.00
2023-05-22T08:03:38.587Z,0.00
2023-05-22T08:04:45.864Z,0.00
2023-05-22T08:05:53.123Z,0.00
2023-05-22T08:07:00.572Z,0.00
2023-05-22T08:08:10.807Z,0.00
2023-05-22T08:09:18.147Z,0.00
2023-05-22T08:10:25.482Z,0.00
2023-05-22T08:11:35.157Z,0.00
2023-05-22T08:12:43.584Z,0.00
2023-05-22T08:13:51.913Z,0.00
2023-05-22T08:14:59.996Z,0.00
2023-05-22T08:16:08.683Z,0.00
2023-05-22T08:17:16.825Z,0.00
2023-05-22T08:18:24.137Z,0.00
2023-05-22T08:19:31.756Z,0.00
2023-05-22T08:20:39.833Z,0.00
2023-05-22T08:21:48.111Z,0.00
2023-05-22T08:22:56.672Z,0.00
2023-05-22T08:24:04.558Z,0.00
2023-05-22T08:25:11.843Z,0.00
2023-05-22T08:26:20.530Z,0.00
2023-05-22T08:27:29.041Z,0.00
2023-05-22T08:28:37.784Z,0.00
2023-05-22T08:29:44.384Z,0.00
2023-05-22T08:30:52.508Z,0.00
2023-05-22T08:32:00.008Z,0.00
2023-05-22T08:33:07.897Z,0.00
2023-05-22T08:34:16.088Z,0.00
2023-05-22T08:35:23.617Z,0.00
2023-05-22T08:36:34.297Z,0.00
2023-05-22T08:37:41.815Z,0.00
2023-05-22T08:38:50.602Z,0.00
2023-05-22T08:39:58.469Z,0.00
2023-05-22T08:41:06.459Z,0.00
2023-05-22T08:42:15.067Z,0.00
2023-05-22T08:43:23.876Z,0.00
2023-05-22T08:44:33.004Z,0.00
2023-05-22T08:45:43.585Z,0.00
2023-05-22T08:46:51.062Z,0.00
2023-05-22T08:47:59.219Z,0.00
2023-05-22T08:49:13.649Z,0.00
2023-05-22T08:50:20.920Z,0.00
2023-05-22T08:51:30.499Z,0.00
2023-05-22T08:52:45.544Z,0.00
2023-05-22T08:53:54.990Z,0.00
2023-05-22T08:55:01.712Z,0.00
2023-05-22T08:56:10.534Z,0.00
2023-05-22T08:57:18.117Z,0.00
2023-05-22T08:58:26.278Z,0.00
2023-05-22T08:59:33.589Z,0.00
2023-05-22T09:00:40.835Z,0.00
2023-05-22T09:01:48.330Z,0.00
2023-05-22T09:02:57.820Z,0.00
2023-05-22T09:04:05.542Z,0.00
2023-05-22T09:05:13.452Z,0.00
2023-05-22T09:06:21.184Z,0.00
2023-05-22T09:07:29.656Z,0.00
2023-05-22T09:08:37.242Z,0.00
2023-05-22T09:09:44.150Z,0.00
2023-05-22T09:10:51.913Z,0.00
2023-05-22T09:11:59.874Z,0.00
2023-05-22T09:13:10.048Z,0.00
2023-05-22T09:14:17.321Z,0.00
2023-05-22T09:15:24.173Z,0.00
2023-05-22T09:16:31.995Z,0.00
2023-05-22T09:17:43.101Z,0.00
2023-05-22T09:18:52.520Z,0.00
2023-05-22T09:20:03.462Z,0.00
2023-05-22T09:21:22.155Z,0.00
2023-05-22T09:22:40.597Z,0.00
2023-05-22T09:23:52.976Z,0.00
2023-05-22T09:25:01.751Z,0.00
2023-05-22T09:26:09.632Z,0.00
2023-05-22T09:27:18.188Z,0.00
2023-05-22T09:28:27.984Z,0.00
2023-05-22T09:29:50.772Z,0.00
2023-05-22T09:30:57.700Z,0.00
2023-05-22T09:32:05.102Z,0.00
2023-05-22T09:33:15.570Z,0.00
2023-05-22T09:34:23.980Z,0.00
2023-05-22T09:35:38.014Z,0.00
2023-05-22T09:36:44.840Z,0.00
2023-05-22T09:37:52.358Z,0.00
2023-05-22T09:38:59.241Z,0.00
2023-05-22T09:40:10.896Z,0.00
2023-05-22T09:41:27.789Z,0.00
2023-05-22T09:42:38.051Z,0.00
2023-05-22T09:43:53.593Z,0.00
2023-05-22T09:45:09.429Z,0.00
2023-05-22T09:46:17.175Z,0.00
2023-05-22T09:47:25.836Z,0.00
2023-05-22T09:48:38.886Z,0.00
2023-05-22T09:49:47.420Z,0.00
2023-05-22T09:50:58.223Z,0.00
2023-05-22T09:52:06.059Z,0.00
2023-05-22T09:53:14.797Z,0.00
2023-05-22T09:54:23.660Z,0.00
2023-05-22T09:55:31.826Z,0.00
2023-05-22T09:56:40.258Z,0.00
2023-05-22T09:57:50.829Z,0.00
2023-05-22T09:59:00.832Z,0.00
2023-05-22T10:00:12.851Z,0.00
2023-05-22T10:01:20.684Z,0.00
2023-05-22T10:02:30.460Z,0.00
2023-05-22T10:03:40.564Z,0.00
2023-05-22T10:04:47.355Z,0.00
2023-05-22T10:05:57.476Z,0.00
2023-05-22T10:07:05.597Z,0.00
2023-05-22T10:08:15.879Z,0.00
2023-05-22T10:09:26.374Z,0.00
2023-05-22T10:10:34.541Z,0.00
2023-05-22T10:11:41.734Z,0.00
2023-05-22T10:13:08.430Z,0.00
2023-05-22T10:14:16.641Z,0.00
2023-05-22T10:15:24.993Z,0.00
2023-05-22T10:16:33.756Z,0.00
2023-05-22T10:17:41.253Z,0.00
2023-05-22T10:18:50.741Z,0.00
2023-05-22T10:19:58.912Z,0.00
2023-05-22T10:21:08.351Z,0.00
2023-05-22T10:22:23.039Z,0.00
2023-05-22T10:23:31.393Z,0.00
2023-05-22T10:24:39.854Z,0.00
2023-05-22T10:25:47.419Z,0.00
2023-05-22T10:26:55.852Z,0.00
2023-05-22T10:28:03.385Z,0.00
2023-05-22T10:29:19.839Z,0.00
2023-05-22T10:30:54.511Z,0.00
2023-05-22T10:32:35.609Z,0.00
2023-05-22T10:33:48.938Z,0.00
2023-05-22T10:35:02.572Z,0.00
2023-05-22T10:36:12.000Z,0.00
2023-05-22T10:37:39.529Z,0.00
2023-05-22T10:39:08.996Z,0.00
2023-05-22T10:40:30.030Z,0.00
2023-05-22T10:41:37.160Z,0.00
2023-05-22T10:42:45.118Z,0.00
2023-05-22T10:43:52.399Z,0.00
2023-05-22T10:44:58.831Z,0.00
2023-05-22T10:46:07.158Z,0.00
2023-05-22T10:47:17.720Z,0.00
2023-05-22T10:48:24.611Z,0.00
2023-05-22T10:49:32.112Z,0.00
2023-05-22T10:50:39.287Z,0.00
2023-05-22T10:51:47.387Z,0.00
2023-05-22T10:53:15.924Z,0.00
2023-05-22T10:54:43.462Z,0.00
2023-05-22T10:56:04.124Z,0.00
2023-05-22T10:57:18.494Z,0.00
2023-05-22T10:58:32.757Z,0.00
2023-05-22T10:59:40.430Z,0.00
2023-05-22T11:00:47.501Z,0.00
2023-05-22T11:02:03.552Z,0.00
2023-05-22T11:03:17.760Z,0.00
2023-05-22T11:04:28.716Z,0.00
2023-05-22T11:05:35.848Z,0.00
2023-05-22T11:07:03.703Z,0.00
2023-05-22T11:08:40.013Z,0.00
2023-05-22T11:09:49.893Z,0.00
2023-05-22T11:10:58.479Z,0.00
2023-05-22T11:12:22.491Z,0.00
2023-05-22T11:13:30.254Z,0.00
2023-05-22T11:14:38.571Z,0.00
2023-05-22T11:15:48.790Z,0.00
2023-05-22T11:17:01.972Z,0.00
2023-05-22T11:18:09.032Z,0.00
2023-05-22T11:20:27.647Z,0.00
2023-05-22T11:21:46.974Z,0.00
2023-05-22T11:23:06.479Z,0.00
2023-05-22T11:24:15.530Z,0.00
2023-05-22T11:25:23.337Z,0.00
2023-05-22T11:26:31.825Z,0.00
2023-05-22T11:27:40.950Z,0.00
2023-05-22T11:28:53.906Z,0.00
2023-05-22T11:30:03.679Z,0.00
2023-05-22T11:31:11.543Z,0.00
2023-05-22T11:32:22.297Z,0.00
2023-05-22T11:33:30.351Z,0.00
2023-05-22T11:34:38.244Z,0.00
2023-05-22T11:35:47.201Z,0.00
2023-05-22T11:37:01.653Z,0.00
2023-05-22T11:38:09.760Z,0.00
2023-05-22T11:39:18.869Z,0.00
2023-05-22T11:40:28.969Z,0.00
2023-05-22T11:41:37.072Z,0.00
2023-05-22T11:42:44.947Z,0.00
2023-05-22T11:43:53.122Z,0.00
2023-05-22T11:45:01.957Z,0.00
2023-05-22T11:46:13.278Z,0.00
2023-05-22T11:47:22.379Z,0.00
2023-05-22T11:48:32.070Z,0.00
2023-05-22T11:49:39.353Z,0.00
2023-05-22T11:50:46.985Z,0.00
2023-05-22T11:51:55.033Z,0.00
2023-05-22T11:53:04.487Z,0.00
2023-05-22T11:54:12.633Z,0.00
2023-05-22T11:55:20.463Z,0.00
2023-05-22T11:56:27.939Z,0.00
2023-05-22T11:57:35.992Z,0.00
2023-05-22T11:58:42.693Z,0.00
2023-05-22T11:59:49.702Z,0.00
2023-05-22T12:01:03.504Z,0.00
2023-05-22T12:02:11.697Z,0.00
2023-05-22T12:03:19.872Z,0.00
2023-05-22T12:04:28.616Z,0.00
2023-05-22T12:05:36.112Z,0.00
2023-05-22T12:06:43.615Z,0.00
2023-05-22T12:07:51.229Z,0.00
2023-05-22T12:08:59.339Z,0.00
2023-05-22T12:10:08.520Z,0.00
2023-05-22T12:11:16.638Z,0.00
2023-05-22T12:12:24.254Z,0.00
2023-05-22T12:13:32.299Z,0.00
2023-05-22T12:14:39.824Z,0.00
2023-05-22T12:15:48.576Z,0.00
2023-05-22T12:16:57.802Z,0.00
2023-05-22T12:18:05.472Z,0.00
2023-05-22T12:19:15.081Z,0.00
2023-05-22T12:20:22.843Z,0.00
2023-05-22T12:21:30.537Z,0.00
2023-05-22T12:22:44.634Z,0.00
2023-05-22T12:23:52.500Z,0.00
2023-05-22T12:25:00.344Z,0.00
2023-05-22T12:26:11.429Z,0.00
2023-05-22T12:27:19.658Z,0.00
2023-05-22T12:28:28.012Z,0.00
2023-05-22T12:29:36.254Z,0.00
2023-05-22T12:30:44.034Z,0.00
2023-05-22T12:31:51.559Z,0.00
2023-05-22T12:32:58.819Z,0.01
2023-05-22T12:34:08.541Z,0.01
2023-05-22T12:35:20.522Z,0.03
2023-05-22T12:36:37.292Z,0.03
2023-05-22T12:37:50.773Z,0.05
2023-05-22T12:38:59.628Z,0.10
2023-05-22T12:40:07.598Z,0.10
2023-05-22T12:41:16.412Z,0.02
2023-05-22T12:42:23.560Z,0.15
2023-05-22T12:43:31.293Z,0.20
2023-05-22T12:44:38.549Z,0.28
2023-05-22T12:45:46.110Z,0.06
2023-05-22T12:46:55.451Z,0.14
2023-05-22T12:48:03.336Z,0.19
2023-05-22T12:49:12.786Z,0.09
2023-05-22T12:50:20.268Z,0.17
2023-05-22T12:51:32.292Z,0.19
2023-05-22T12:52:38.936Z,0.22
2023-05-22T12:53:46.083Z,0.27
2023-05-22T12:54:53.612Z,0.41
2023-05-22T12:56:01.454Z,0.30
2023-05-22T12:57:09.941Z,0.41
2023-05-22T12:58:18.097Z,0.50
2023-05-22T12:59:25.925Z,0.55
2023-05-22T13:00:33.754Z,0.61
2023-05-22T13:01:40.741Z,0.48
2023-05-22T13:02:49.201Z,0.33
2023-05-22T13:03:56.002Z,0.48
2023-05-22T13:05:03.616Z,0.41
2023-05-22T13:06:12.320Z,0.52
2023-05-22T13:07:20.837Z,0.50
2023-05-22T13:08:29.503Z,0.44
2023-05-22T13:09:37.833Z,0.30
2023-05-22T13:10:46.271Z,0.38
2023-05-22T13:11:55.402Z,0.53
2023-05-22T13:13:02.871Z,0.53
2023-05-22T13:14:11.150Z,0.43
2023-05-22T13:15:19.544Z,0.47
2023-05-22T13:16:27.081Z,0.44
2023-05-22T13:17:35.222Z,0.58
2023-05-22T13:18:42.712Z,0.44
2023-05-22T13:19:50.914Z,0.45
2023-05-22T13:21:00.402Z,0.59
2023-05-22T13:22:10.122Z,0.58
2023-05-22T13:23:17.588Z,0.66
2023-05-22T13:24:25.148Z,0.44
2023-05-22T13:25:32.794Z,0.61
2023-05-22T13:26:39.887Z,0.70
2023-05-22T13:27:47.510Z,0.73
2023-05-22T13:28:54.824Z,0.77
2023-05-22T13:30:02.618Z,0.57
2023-05-22T13:31:11.595Z,0.59
2023-05-22T13:32:23.775Z,0.82
2023-05-22T13:33:31.783Z,0.89
2023-05-22T13:34:39.072Z,0.81
2023-05-22T13:35:47.641Z,0.99
2023-05-22T13:36:55.272Z,0.77
2023-05-22T13:38:03.376Z,0.69
2023-05-22T13:39:11.516Z,0.73
2023-05-22T13:40:20.330Z,0.61
2023-05-22T13:41:28.731Z,0.72
2023-05-22T13:42:36.661Z,0.74
2023-05-22T13:43:44.408Z,0.65
2023-05-22T13:44:52.338Z,0.68
2023-05-22T13:46:01.361Z,0.72
2023-05-22T13:47:09.554Z,0.67
2023-05-22T13:48:17.260Z,0.73
2023-05-22T13:49:24.287Z,0.72
2023-05-22T13:50:31.891Z,0.71
2023-05-22T13:51:39.072Z,0.74
2023-05-22T13:52:47.041Z,0.90
2023-05-22T13:53:54.671Z,0.85
2023-05-22T13:55:04.490Z,0.67
2023-05-22T13:56:12.615Z,0.88
2023-05-22T13:57:21.373Z,0.81
2023-05-22T13:58:29.864Z,0.81
2023-05-22T13:59:37.104Z,0.76
2023-05-22T14:00:44.042Z,0.85
2023-05-22T14:01:52.495Z,0.77
2023-05-22T14:03:00.016Z,0.91
2023-05-22T14:04:07.462Z,1.00
2023-05-22T14:05:15.593Z,0.95
2023-05-22T14:06:23.456Z,1.01
2023-05-22T14:07:31.607Z,0.98
2023-05-22T14:08:38.952Z,1.02
2023-05-22T14:09:46.980Z,0.91
2023-05-22T14:10:54.500Z,0.89
2023-05-22T14:12:02.653Z,1.07
2023-05-22T14:13:10.211Z,1.08
2023-05-22T14:14:17.687Z,0.99
2023-05-22T14:15:25.205Z,0.93
2023-05-22T14:16:33.720Z,0.88
2023-05-22T14:17:41.329Z,0.93
2023-05-22T14:18:48.772Z,1.02
2023-05-22T14:19:56.073Z,1.09
2023-05-22T14:21:04.640Z,0.93
2023-05-22T14:22:13.133Z,0.89
2023-05-22T14:23:20.407Z,1.04
2023-05-22T14:24:27.630Z,0.91
2023-05-22T14:25:35.403Z,0.91
2023-05-22T14:26:43.252Z,0.93
2023-05-22T14:27:51.316Z,0.95
2023-05-22T14:29:01.070Z,1.07
2023-05-22T14:30:14.733Z,1.12
2023-05-22T14:31:22.556Z,0.97
2023-05-22T14:32:30.078Z,0.99
2023-05-22T14:33:37.845Z,0.99
2023-05-22T14:34:45.112Z,1.05
2023-05-22T14:35:53.543Z,1.06
2023-05-22T14:37:02.333Z,0.93
2023-05-22T14:38:09.539Z,1.11
2023-05-22T14:39:18.985Z,1.07
2023-05-22T14:40:26.534Z,1.02
2023-05-22T14:41:35.158Z,0.99
2023-05-22T14:42:43.498Z,1.04
2023-05-22T14:43:50.334Z,1.16
2023-05-22T14:44:57.863Z,1.09
2023-05-22T14:46:06.394Z,1.14
2023-05-22T14:47:15.467Z,1.10
2023-05-22T14:48:28.428Z,1.16
2023-05-22T14:49:36.964Z,1.07
2023-05-22T14:50:44.224Z,1.21
2023-05-22T14:51:52.313Z,1.09
2023-05-22T14:53:01.253Z,0.96
2023-05-22T14:54:08.682Z,1.11
2023-05-22T14:55:16.273Z,1.03
2023-05-22T14:56:24.377Z,1.01
2023-05-22T14:57:33.163Z,0.97
2023-05-22T14:58:41.326Z,1.20
2023-05-22T14:59:48.271Z,1.21
2023-05-22T15:00:57.421Z,1.11
2023-05-22T15:02:04.143Z,1.14
2023-05-22T15:03:12.644Z,1.32
2023-05-22T15:04:22.858Z,1.36
2023-05-22T15:05:31.625Z,1.16
2023-05-22T15:06:38.664Z,1.11
2023-05-22T15:07:46.819Z,1.24
2023-05-22T15:08:56.351Z,1.24
2023-05-22T15:10:06.813Z,1.27
2023-05-22T15:11:14.786Z,1.15
2023-05-22T15:12:22.776Z,1.07
2023-05-22T15:13:31.243Z,1.18
2023-05-22T15:14:38.547Z,1.30
2023-05-22T15:15:46.281Z,1.30
2023-05-22T15:16:53.739Z,1.21
2023-05-22T15:18:04.614Z,1.13
2023-05-22T15:19:13.114Z,1.07
2023-05-22T15:20:21.891Z,1.14
2023-05-22T15:21:29.331Z,1.30
2023-05-22T15:22:37.151Z,1.24
2023-05-22T15:23:45.739Z,1.30
2023-05-22T15:25:09.298Z,1.39
2023-05-22T15:26:18.433Z,1.28
2023-05-22T15:27:25.900Z,1.29
2023-05-22T15:28:33.670Z,1.19
2023-05-22T15:29:40.973Z,1.12
2023-05-22T15:30:48.447Z,1.38
2023-05-22T15:31:56.375Z,1.33
2023-05-22T15:33:05.780Z,1.14